sensor_id;sensor_type;location;lat;lon;timestamp;pressure;altitude;pressure_sealevel;temperature;humidity
77526;BME280;66627;29.424;-98.496;2023-05-07T00:00:12;98482.76;;;30.01;45.86
77526;BME280;66627;29.424;-98.496;2023-05-07T00:02:37;98488.53;;;30.31;45.19
77526;BME280;66627;29.424;-98.496;2023-05-07T00:05:02;98474.09;;;30.49;45.06
77526;BME280;66627;29.424;-98.496;2023-05-07T00:07:28;98459.81;;;30.95;44.73
77526;BME280;66627;29.424;-98.496;2023-05-07T00:09:53;98466.36;;;30.65;45.19
77526;BME280;66627;29.424;-98.496;2023-05-07T00:12:19;98457.80;;;29.83;45.75
77526;BME280;66627;29.424;-98.496;2023-05-07T00:14:45;98446.73;;;30.69;45.11
77526;BME280;66627;29.424;-98.496;2023-05-07T00:17:10;98456.18;;;30.38;45.27
77526;BME280;66627;29.424;-98.496;2023-05-07T00:19:35;98461.14;;;30.01;45.25
77526;BME280;66627;29.424;-98.496;2023-05-07T00:22:01;98462.92;;;30.46;44.97
77526;BME280;66627;29.424;-98.496;2023-05-07T00:24:27;98453.38;;;29.73;45.81
77526;BME280;66627;29.424;-98.496;2023-05-07T00:26:52;98453.89;;;29.47;45.89
77526;BME280;66627;29.424;-98.496;2023-05-07T00:29:18;98449.33;;;30.10;45.23
77526;BME280;66627;29.424;-98.496;2023-05-07T00:31:44;98447.20;;;30.53;44.83
77526;BME280;66627;29.424;-98.496;2023-05-07T00:34:10;98442.10;;;29.67;46.13
77526;BME280;66627;29.424;-98.496;2023-05-07T00:36:39;98436.80;;;29.44;46.95
77526;BME280;66627;29.424;-98.496;2023-05-07T00:39:01;98438.08;;;29.61;45.79
77526;BME280;66627;29.424;-98.496;2023-05-07T00:41:25;98429.29;;;29.37;46.58
77526;BME280;66627;29.424;-98.496;2023-05-07T00:43:51;98420.56;;;28.84;47.79
77526;BME280;66627;29.424;-98.496;2023-05-07T00:46:17;98420.97;;;29.17;46.98
77526;BME280;66627;29.424;-98.496;2023-05-07T00:48:42;98419.86;;;28.85;47.84
77526;BME280;66627;29.424;-98.496;2023-05-07T00:51:08;98415.30;;;28.67;47.96
77526;BME280;66627;29.424;-98.496;2023-05-07T00:53:32;98420.45;;;28.93;47.64
77526;BME280;66627;29.424;-98.496;2023-05-07T00:55:58;98419.97;;;28.88;47.79
77526;BME280;66627;29.424;-98.496;2023-05-07T00:58:28;98421.91;;;27.80;48.83
77526;BME280;66627;29.424;-98.496;2023-05-07T01:00:49;98424.95;;;28.24;49.04
77526;BME280;66627;29.424;-98.496;2023-05-07T01:03:15;98435.78;;;28.77;48.92
77526;BME280;66627;29.424;-98.496;2023-05-07T01:05:41;98440.14;;;28.29;49.14
77526;BME280;66627;29.424;-98.496;2023-05-07T01:08:06;98441.01;;;28.18;48.89
77526;BME280;66627;29.424;-98.496;2023-05-07T01:10:31;98446.03;;;28.34;49.04
77526;BME280;66627;29.424;-98.496;2023-05-07T01:12:58;98453.64;;;28.16;48.98
77526;BME280;66627;29.424;-98.496;2023-05-07T01:15:23;98461.72;;;28.85;47.96
77526;BME280;66627;29.424;-98.496;2023-05-07T01:17:53;98464.79;;;28.65;48.21
77526;BME280;66627;29.424;-98.496;2023-05-07T01:20:13;98465.59;;;28.35;49.27
77526;BME280;66627;29.424;-98.496;2023-05-07T01:22:39;98470.25;;;27.93;49.56
77526;BME280;66627;29.424;-98.496;2023-05-07T01:25:06;98479.13;;;28.66;48.78
77526;BME280;66627;29.424;-98.496;2023-05-07T01:27:29;98486.21;;;28.56;48.86
77526;BME280;66627;29.424;-98.496;2023-05-07T01:29:55;98489.59;;;28.68;48.36
77526;BME280;66627;29.424;-98.496;2023-05-07T01:32:27;98488.72;;;28.69;48.61
77526;BME280;66627;29.424;-98.496;2023-05-07T01:34:46;98495.61;;;27.69;50.21
77526;BME280;66627;29.424;-98.496;2023-05-07T01:37:12;98490.23;;;28.37;48.91
77526;BME280;66627;29.424;-98.496;2023-05-07T01:39:39;98492.80;;;28.52;48.98
77526;BME280;66627;29.424;-98.496;2023-05-07T01:42:02;98502.10;;;28.78;48.70
77526;BME280;66627;29.424;-98.496;2023-05-07T01:44:27;98504.83;;;27.85;49.87
77526;BME280;66627;29.424;-98.496;2023-05-07T01:46:53;98515.62;;;28.22;49.69
77526;BME280;66627;29.424;-98.496;2023-05-07T01:49:19;98514.77;;;27.98;49.66
77526;BME280;66627;29.424;-98.496;2023-05-07T01:51:45;98513.08;;;28.14;49.76
77526;BME280;66627;29.424;-98.496;2023-05-07T01:54:10;98512.02;;;27.91;50.30
77526;BME280;66627;29.424;-98.496;2023-05-07T01:56:35;98512.21;;;27.73;50.02
77526;BME280;66627;29.424;-98.496;2023-05-07T01:59:01;98524.48;;;27.97;50.43
77526;BME280;66627;29.424;-98.496;2023-05-07T02:01:26;98533.08;;;27.53;50.90
77526;BME280;66627;29.424;-98.496;2023-05-07T02:03:51;98548.18;;;27.14;52.14
77526;BME280;66627;29.424;-98.496;2023-05-07T02:06:16;98561.19;;;26.91;51.97
77526;BME280;66627;29.424;-98.496;2023-05-07T02:08:42;98567.05;;;27.12;52.24
77526;BME280;66627;29.424;-98.496;2023-05-07T02:11:12;98569.53;;;28.20;50.77
77526;BME280;66627;29.424;-98.496;2023-05-07T02:13:34;98569.51;;;27.92;50.29
77526;BME280;66627;29.424;-98.496;2023-05-07T02:15:58;98575.97;;;27.90;50.37
77526;BME280;66627;29.424;-98.496;2023-05-07T02:18:24;98575.76;;;27.41;51.72
77526;BME280;66627;29.424;-98.496;2023-05-07T02:20:49;98582.24;;;27.70;50.76
77526;BME280;66627;29.424;-98.496;2023-05-07T02:23:15;98582.58;;;27.65;51.14
77526;BME280;66627;29.424;-98.496;2023-05-07T02:25:45;98585.86;;;28.32;50.67
77526;BME280;66627;29.424;-98.496;2023-05-07T02:28:05;98586.46;;;27.06;52.15
77526;BME280;66627;29.424;-98.496;2023-05-07T02:30:31;98586.20;;;27.17;52.05
77526;BME280;66627;29.424;-98.496;2023-05-07T02:32:57;98582.04;;;27.42;51.99
77526;BME280;66627;29.424;-98.496;2023-05-07T02:35:22;98584.82;;;27.50;52.00
77526;BME280;66627;29.424;-98.496;2023-05-07T02:37:52;98593.04;;;26.98;52.59
77526;BME280;66627;29.424;-98.496;2023-05-07T02:40:14;98597.74;;;26.77;52.94
77526;BME280;66627;29.424;-98.496;2023-05-07T02:42:38;98605.93;;;27.55;52.11
77526;BME280;66627;29.424;-98.496;2023-05-07T02:45:04;98610.95;;;27.44;52.42
77526;BME280;66627;29.424;-98.496;2023-05-07T02:47:33;98609.82;;;27.80;52.25
77526;BME280;66627;29.424;-98.496;2023-05-07T02:49:55;98609.41;;;27.60;52.30
77526;BME280;66627;29.424;-98.496;2023-05-07T02:52:25;98623.26;;;27.21;52.53
77526;BME280;66627;29.424;-98.496;2023-05-07T02:54:46;98628.54;;;27.81;52.33
77526;BME280;66627;29.424;-98.496;2023-05-07T02:57:11;98639.49;;;26.11;55.55
77526;BME280;66627;29.424;-98.496;2023-05-07T02:59:37;98640.99;;;26.47;54.47
77526;BME280;66627;29.424;-98.496;2023-05-07T03:02:02;98652.40;;;26.41;55.02
77526;BME280;66627;29.424;-98.496;2023-05-07T03:04:28;98654.84;;;27.26;53.51
77526;BME280;66627;29.424;-98.496;2023-05-07T03:06:54;98657.43;;;27.18;53.65
77526;BME280;66627;29.424;-98.496;2023-05-07T03:09:18;98660.70;;;27.25;53.43
77526;BME280;66627;29.424;-98.496;2023-05-07T03:11:44;98666.91;;;26.44;54.82
77526;BME280;66627;29.424;-98.496;2023-05-07T03:14:10;98666.27;;;26.91;53.99
77526;BME280;66627;29.424;-98.496;2023-05-07T03:16:36;98668.89;;;27.02;53.98
77526;BME280;66627;29.424;-98.496;2023-05-07T03:19:00;98676.84;;;26.61;54.82
77526;BME280;66627;29.424;-98.496;2023-05-07T03:21:26;98680.82;;;26.78;54.41
77526;BME280;66627;29.424;-98.496;2023-05-07T03:23:52;98687.39;;;26.51;55.04
77526;BME280;66627;29.424;-98.496;2023-05-07T03:26:17;98694.43;;;26.66;54.68
77526;BME280;66627;29.424;-98.496;2023-05-07T03:28:43;98699.20;;;27.16;54.20
77526;BME280;66627;29.424;-98.496;2023-05-07T03:31:09;98712.17;;;26.54;54.74
77526;BME280;66627;29.424;-98.496;2023-05-07T03:35:58;98730.53;;;26.81;53.98
77526;BME280;66627;29.424;-98.496;2023-05-07T03:38:24;98732.30;;;26.92;53.90
77526;BME280;66627;29.424;-98.496;2023-05-07T03:40:54;98739.42;;;26.23;54.61
77526;BME280;66627;29.424;-98.496;2023-05-07T03:43:15;98747.24;;;26.33;54.86
77526;BME280;66627;29.424;-98.496;2023-05-07T03:45:41;98754.21;;;25.87;55.54
77526;BME280;66627;29.424;-98.496;2023-05-07T03:48:07;98765.85;;;26.65;54.50
77526;BME280;66627;29.424;-98.496;2023-05-07T03:50:32;98765.38;;;26.74;53.82
77526;BME280;66627;29.424;-98.496;2023-05-07T03:52:57;98766.31;;;26.16;54.37
77526;BME280;66627;29.424;-98.496;2023-05-07T03:55:23;98778.51;;;26.40;54.34
77526;BME280;66627;29.424;-98.496;2023-05-07T03:57:48;98788.88;;;25.90;54.24
77526;BME280;66627;29.424;-98.496;2023-05-07T04:00:14;98788.59;;;25.79;54.76
77526;BME280;66627;29.424;-98.496;2023-05-07T04:02:38;98792.38;;;25.87;55.00
77526;BME280;66627;29.424;-98.496;2023-05-07T04:05:04;98796.62;;;25.98;54.43
77526;BME280;66627;29.424;-98.496;2023-05-07T04:07:30;98809.24;;;25.94;54.43
77526;BME280;66627;29.424;-98.496;2023-05-07T04:09:54;98818.07;;;26.35;53.99
77526;BME280;66627;29.424;-98.496;2023-05-07T04:12:20;98824.95;;;26.28;53.04
77526;BME280;66627;29.424;-98.496;2023-05-07T04:14:45;98829.17;;;26.40;53.07
77526;BME280;66627;29.424;-98.496;2023-05-07T04:17:10;98824.44;;;26.21;53.38
77526;BME280;66627;29.424;-98.496;2023-05-07T04:19:36;98820.40;;;25.40;54.95
77526;BME280;66627;29.424;-98.496;2023-05-07T04:22:03;98825.09;;;26.20;53.97
77526;BME280;66627;29.424;-98.496;2023-05-07T04:24:31;98828.26;;;25.91;53.91
77526;BME280;66627;29.424;-98.496;2023-05-07T04:26:53;98826.77;;;26.25;53.12
77526;BME280;66627;29.424;-98.496;2023-05-07T04:29:19;98831.92;;;26.10;53.13
77526;BME280;66627;29.424;-98.496;2023-05-07T04:31:44;98837.34;;;26.51;52.56
77526;BME280;66627;29.424;-98.496;2023-05-07T04:34:10;98836.32;;;25.66;54.16
77526;BME280;66627;29.424;-98.496;2023-05-07T04:36:34;98833.77;;;26.02;53.72
77526;BME280;66627;29.424;-98.496;2023-05-07T04:38:59;98835.61;;;26.00;53.81
77526;BME280;66627;29.424;-98.496;2023-05-07T04:41:25;98839.45;;;26.09;53.52
77526;BME280;66627;29.424;-98.496;2023-05-07T04:43:51;98845.57;;;26.08;53.40
77526;BME280;66627;29.424;-98.496;2023-05-07T04:46:16;98849.28;;;26.12;53.52
77526;BME280;66627;29.424;-98.496;2023-05-07T04:48:46;98852.99;;;25.71;54.12
77526;BME280;66627;29.424;-98.496;2023-05-07T04:51:07;98853.92;;;25.64;54.43
77526;BME280;66627;29.424;-98.496;2023-05-07T04:53:32;98849.32;;;26.21;53.60
77526;BME280;66627;29.424;-98.496;2023-05-07T04:55:58;98851.01;;;26.02;53.44
77526;BME280;66627;29.424;-98.496;2023-05-07T04:58:25;98843.56;;;25.51;53.86
77526;BME280;66627;29.424;-98.496;2023-05-07T05:00:48;98842.11;;;25.86;53.93
77526;BME280;66627;29.424;-98.496;2023-05-07T05:03:14;98841.58;;;25.51;54.29
77526;BME280;66627;29.424;-98.496;2023-05-07T05:05:39;98839.18;;;25.68;54.05
77526;BME280;66627;29.424;-98.496;2023-05-07T05:08:05;98839.55;;;26.03;53.38
77526;BME280;66627;29.424;-98.496;2023-05-07T05:10:30;98843.94;;;25.99;53.74
77526;BME280;66627;29.424;-98.496;2023-05-07T05:12:56;98843.57;;;25.70;53.34
77526;BME280;66627;29.424;-98.496;2023-05-07T05:15:23;98840.84;;;25.83;53.40
77526;BME280;66627;29.424;-98.496;2023-05-07T05:17:49;98848.68;;;25.72;53.99
77526;BME280;66627;29.424;-98.496;2023-05-07T05:20:13;98849.66;;;25.12;54.73
77526;BME280;66627;29.424;-98.496;2023-05-07T05:22:38;98847.96;;;25.33;54.60
77526;BME280;66627;29.424;-98.496;2023-05-07T05:25:04;98849.59;;;25.34;54.62
77526;BME280;66627;29.424;-98.496;2023-05-07T05:27:34;98847.88;;;25.38;54.08
77526;BME280;66627;29.424;-98.496;2023-05-07T05:29:54;98840.09;;;25.72;53.72
77526;BME280;66627;29.424;-98.496;2023-05-07T05:32:20;98841.70;;;25.31;53.96
77526;BME280;66627;29.424;-98.496;2023-05-07T05:34:47;98849.55;;;26.13;52.67
77526;BME280;66627;29.424;-98.496;2023-05-07T05:37:11;98856.89;;;25.40;53.47
77526;BME280;66627;29.424;-98.496;2023-05-07T05:39:37;98863.92;;;25.72;53.23
77526;BME280;66627;29.424;-98.496;2023-05-07T05:42:01;98858.16;;;26.13;53.61
77526;BME280;66627;29.424;-98.496;2023-05-07T05:44:27;98861.49;;;25.80;53.28
77526;BME280;66627;29.424;-98.496;2023-05-07T05:46:52;98864.27;;;25.60;53.49
77526;BME280;66627;29.424;-98.496;2023-05-07T05:49:17;98871.40;;;26.32;52.63
77526;BME280;66627;29.424;-98.496;2023-05-07T05:51:43;98859.90;;;26.06;53.52
77526;BME280;66627;29.424;-98.496;2023-05-07T05:54:09;98859.09;;;26.06;53.52
77526;BME280;66627;29.424;-98.496;2023-05-07T05:56:34;98865.42;;;26.05;53.20
77526;BME280;66627;29.424;-98.496;2023-05-07T05:59:00;98863.38;;;26.19;52.96
77526;BME280;66627;29.424;-98.496;2023-05-07T06:01:26;98866.27;;;25.93;53.67
77526;BME280;66627;29.424;-98.496;2023-05-07T06:03:53;98864.67;;;26.15;52.77
77526;BME280;66627;29.424;-98.496;2023-05-07T06:06:17;98857.91;;;25.83;53.80
77526;BME280;66627;29.424;-98.496;2023-05-07T06:08:42;98843.83;;;26.22;53.31
77526;BME280;66627;29.424;-98.496;2023-05-07T06:11:07;98837.33;;;25.67;54.10
77526;BME280;66627;29.424;-98.496;2023-05-07T06:13:32;98834.18;;;26.59;52.43
77526;BME280;66627;29.424;-98.496;2023-05-07T06:15:58;98837.30;;;25.69;54.09
77526;BME280;66627;29.424;-98.496;2023-05-07T06:18:23;98840.36;;;26.06;53.39
77526;BME280;66627;29.424;-98.496;2023-05-07T06:20:49;98839.34;;;25.88;53.61
77526;BME280;66627;29.424;-98.496;2023-05-07T06:23:15;98840.90;;;26.25;53.05
77526;BME280;66627;29.424;-98.496;2023-05-07T06:25:49;98831.37;;;25.34;54.08
77526;BME280;66627;29.424;-98.496;2023-05-07T06:28:05;98830.74;;;25.58;53.86
77526;BME280;66627;29.424;-98.496;2023-05-07T06:30:30;98819.00;;;25.56;54.17
77526;BME280;66627;29.424;-98.496;2023-05-07T06:32:55;98815.61;;;25.35;54.64
77526;BME280;66627;29.424;-98.496;2023-05-07T06:35:22;98809.97;;;25.74;53.92
77526;BME280;66627;29.424;-98.496;2023-05-07T06:37:47;98811.73;;;25.12;55.94
77526;BME280;66627;29.424;-98.496;2023-05-07T06:40:12;98817.88;;;25.22;55.48
77526;BME280;66627;29.424;-98.496;2023-05-07T06:42:38;98815.48;;;25.44;54.48
77526;BME280;66627;29.424;-98.496;2023-05-07T06:45:02;98820.98;;;25.70;54.95
77526;BME280;66627;29.424;-98.496;2023-05-07T06:47:27;98818.74;;;25.37;54.95
77526;BME280;66627;29.424;-98.496;2023-05-07T06:49:57;98813.77;;;26.08;53.81
77526;BME280;66627;29.424;-98.496;2023-05-07T06:52:19;98817.36;;;25.33;54.80
77526;BME280;66627;29.424;-98.496;2023-05-07T06:54:44;98826.39;;;26.20;53.46
77526;BME280;66627;29.424;-98.496;2023-05-07T06:57:09;98827.16;;;25.59;54.20
77526;BME280;66627;29.424;-98.496;2023-05-07T06:59:35;98821.35;;;25.38;54.44
77526;BME280;66627;29.424;-98.496;2023-05-07T07:02:00;98826.88;;;24.68;56.08
77526;BME280;66627;29.424;-98.496;2023-05-07T07:04:25;98823.91;;;24.84;55.62
77526;BME280;66627;29.424;-98.496;2023-05-07T07:06:55;98815.70;;;25.06;55.71
77526;BME280;66627;29.424;-98.496;2023-05-07T07:09:16;98822.53;;;25.28;55.08
77526;BME280;66627;29.424;-98.496;2023-05-07T07:11:42;98816.05;;;25.24;55.01
77526;BME280;66627;29.424;-98.496;2023-05-07T07:14:07;98817.17;;;25.81;54.07
77526;BME280;66627;29.424;-98.496;2023-05-07T07:16:32;98812.81;;;25.43;54.64
77526;BME280;66627;29.424;-98.496;2023-05-07T07:18:58;98814.42;;;25.09;55.31
77526;BME280;66627;29.424;-98.496;2023-05-07T07:21:29;98816.59;;;25.28;55.05
77526;BME280;66627;29.424;-98.496;2023-05-07T07:23:49;98812.35;;;24.98;55.61
77526;BME280;66627;29.424;-98.496;2023-05-07T07:26:14;98815.88;;;25.24;54.99
77526;BME280;66627;29.424;-98.496;2023-05-07T07:28:48;98812.58;;;24.27;56.92
77526;BME280;66627;29.424;-98.496;2023-05-07T07:31:05;98816.92;;;24.96;56.47
77526;BME280;66627;29.424;-98.496;2023-05-07T07:33:31;98815.31;;;24.35;56.87
77526;BME280;66627;29.424;-98.496;2023-05-07T07:35:57;98817.42;;;24.79;56.56
77526;BME280;66627;29.424;-98.496;2023-05-07T07:38:22;98814.92;;;23.87;57.69
77526;BME280;66627;29.424;-98.496;2023-05-07T07:40:51;98808.33;;;24.18;57.08
77526;BME280;66627;29.424;-98.496;2023-05-07T07:43:12;98810.12;;;24.63;57.32
77526;BME280;66627;29.424;-98.496;2023-05-07T07:45:38;98806.66;;;24.54;57.37
77526;BME280;66627;29.424;-98.496;2023-05-07T07:48:08;98812.71;;;24.48;57.09
77526;BME280;66627;29.424;-98.496;2023-05-07T07:50:28;98809.77;;;25.06;56.41
77526;BME280;66627;29.424;-98.496;2023-05-07T07:52:54;98815.08;;;25.32;55.73
77526;BME280;66627;29.424;-98.496;2023-05-07T07:55:22;98811.92;;;24.93;56.10
77526;BME280;66627;29.424;-98.496;2023-05-07T07:57:46;98819.45;;;25.12;56.26
77526;BME280;66627;29.424;-98.496;2023-05-07T08:00:13;98811.65;;;25.10;56.35
77526;BME280;66627;29.424;-98.496;2023-05-07T08:02:36;98808.55;;;25.20;55.63
77526;BME280;66627;29.424;-98.496;2023-05-07T08:05:08;98798.37;;;24.75;56.35
77526;BME280;66627;29.424;-98.496;2023-05-07T08:07:28;98806.32;;;25.31;55.65
77526;BME280;66627;29.424;-98.496;2023-05-07T08:09:53;98806.81;;;25.40;55.57
77526;BME280;66627;29.424;-98.496;2023-05-07T08:12:18;98820.96;;;25.70;55.08
77526;BME280;66627;29.424;-98.496;2023-05-07T08:14:44;98826.39;;;25.32;55.65
77526;BME280;66627;29.424;-98.496;2023-05-07T08:17:09;98822.92;;;24.76;56.40
77526;BME280;66627;29.424;-98.496;2023-05-07T08:19:35;98811.34;;;25.52;55.04
77526;BME280;66627;29.424;-98.496;2023-05-07T08:22:00;98807.06;;;25.51;54.64
77526;BME280;66627;29.424;-98.496;2023-05-07T08:24:26;98804.34;;;25.53;54.49
77526;BME280;66627;29.424;-98.496;2023-05-07T08:26:51;98807.80;;;25.10;55.21
77526;BME280;66627;29.424;-98.496;2023-05-07T08:29:16;98800.82;;;25.70;54.95
77526;BME280;66627;29.424;-98.496;2023-05-07T08:31:41;98794.24;;;25.07;56.06
77526;BME280;66627;29.424;-98.496;2023-05-07T08:34:07;98788.38;;;25.20;55.59
77526;BME280;66627;29.424;-98.496;2023-05-07T08:36:32;98781.76;;;24.67;55.90
77526;BME280;66627;29.424;-98.496;2023-05-07T08:38:58;98778.31;;;24.98;56.39
77526;BME280;66627;29.424;-98.496;2023-05-07T08:41:23;98774.83;;;25.35;55.83
77526;BME280;66627;29.424;-98.496;2023-05-07T08:43:50;98775.97;;;25.25;55.83
77526;BME280;66627;29.424;-98.496;2023-05-07T08:46:18;98774.21;;;24.59;56.18
77526;BME280;66627;29.424;-98.496;2023-05-07T08:48:39;98772.44;;;24.97;56.12
77526;BME280;66627;29.424;-98.496;2023-05-07T08:51:05;98762.48;;;24.70;57.08
77526;BME280;66627;29.424;-98.496;2023-05-07T08:53:30;98763.57;;;24.91;56.69
77526;BME280;66627;29.424;-98.496;2023-05-07T08:55:55;98765.19;;;25.07;56.50
77526;BME280;66627;29.424;-98.496;2023-05-07T08:58:20;98767.65;;;25.00;56.51
77526;BME280;66627;29.424;-98.496;2023-05-07T09:00:47;98774.64;;;25.01;56.40
77526;BME280;66627;29.424;-98.496;2023-05-07T09:03:11;98775.35;;;25.09;56.21
77526;BME280;66627;29.424;-98.496;2023-05-07T09:05:37;98772.42;;;24.62;57.09
77526;BME280;66627;29.424;-98.496;2023-05-07T09:08:03;98774.46;;;24.67;56.52
77526;BME280;66627;29.424;-98.496;2023-05-07T09:10:28;98781.26;;;24.66;56.96
77526;BME280;66627;29.424;-98.496;2023-05-07T09:12:54;98777.12;;;24.43;57.46
77526;BME280;66627;29.424;-98.496;2023-05-07T09:15:24;98776.78;;;24.76;57.00
77526;BME280;66627;29.424;-98.496;2023-05-07T09:17:44;98763.57;;;24.50;57.33
77526;BME280;66627;29.424;-98.496;2023-05-07T09:20:09;98760.92;;;24.46;57.98
77526;BME280;66627;29.424;-98.496;2023-05-07T09:22:37;98765.60;;;24.66;57.18
77526;BME280;66627;29.424;-98.496;2023-05-07T09:25:00;98775.12;;;24.90;56.72
77526;BME280;66627;29.424;-98.496;2023-05-07T09:27:26;98781.48;;;24.87;56.79
77526;BME280;66627;29.424;-98.496;2023-05-07T09:29:52;98790.10;;;25.08;56.35
77526;BME280;66627;29.424;-98.496;2023-05-07T09:32:17;98787.63;;;25.36;55.38
77526;BME280;66627;29.424;-98.496;2023-05-07T09:34:43;98773.90;;;25.04;56.39
77526;BME280;66627;29.424;-98.496;2023-05-07T09:37:08;98762.97;;;25.60;54.78
77526;BME280;66627;29.424;-98.496;2023-05-07T09:39:42;98759.62;;;24.75;56.29
77526;BME280;66627;29.424;-98.496;2023-05-07T09:41:58;98750.62;;;24.21;56.93
77526;BME280;66627;29.424;-98.496;2023-05-07T09:44:23;98749.00;;;24.15;57.05
77526;BME280;66627;29.424;-98.496;2023-05-07T09:46:54;98748.44;;;24.45;56.96
77526;BME280;66627;29.424;-98.496;2023-05-07T09:49:28;98748.96;;;24.39;57.60
77526;BME280;66627;29.424;-98.496;2023-05-07T09:51:45;98757.32;;;24.08;58.20
77526;BME280;66627;29.424;-98.496;2023-05-07T09:54:06;98760.46;;;24.09;58.12
77526;BME280;66627;29.424;-98.496;2023-05-07T09:56:32;98761.62;;;25.16;56.22
77526;BME280;66627;29.424;-98.496;2023-05-07T09:59:00;98755.74;;;24.77;56.47
77526;BME280;66627;29.424;-98.496;2023-05-07T10:01:28;98748.40;;;25.20;55.78
77526;BME280;66627;29.424;-98.496;2023-05-07T10:03:49;98752.25;;;25.00;56.47
77526;BME280;66627;29.424;-98.496;2023-05-07T10:06:13;98748.37;;;25.32;55.95
77526;BME280;66627;29.424;-98.496;2023-05-07T10:08:38;98747.15;;;24.81;56.64
77526;BME280;66627;29.424;-98.496;2023-05-07T10:11:04;98739.69;;;25.45;55.71
77526;BME280;66627;29.424;-98.496;2023-05-07T10:13:29;98745.75;;;25.40;55.73
77526;BME280;66627;29.424;-98.496;2023-05-07T10:15:54;98758.24;;;25.34;55.42
77526;BME280;66627;29.424;-98.496;2023-05-07T10:18:20;98759.39;;;25.79;54.34
77526;BME280;66627;29.424;-98.496;2023-05-07T10:20:46;98773.97;;;25.33;55.26
77526;BME280;66627;29.424;-98.496;2023-05-07T10:23:14;98780.89;;;25.85;54.14
77526;BME280;66627;29.424;-98.496;2023-05-07T10:25:35;98792.28;;;25.49;54.23
77526;BME280;66627;29.424;-98.496;2023-05-07T10:28:04;98801.06;;;25.67;53.72
77526;BME280;66627;29.424;-98.496;2023-05-07T10:30:31;98802.58;;;24.95;55.29
77526;BME280;66627;29.424;-98.496;2023-05-07T10:32:55;98801.22;;;24.94;55.37
77526;BME280;66627;29.424;-98.496;2023-05-07T10:35:20;98805.63;;;24.87;55.55
77526;BME280;66627;29.424;-98.496;2023-05-07T10:37:44;98813.74;;;25.70;53.89
77526;BME280;66627;29.424;-98.496;2023-05-07T10:40:12;98803.85;;;25.65;54.23
77526;BME280;66627;29.424;-98.496;2023-05-07T10:42:33;98798.18;;;26.17;53.48
77526;BME280;66627;29.424;-98.496;2023-05-07T10:45:12;98807.25;;;26.35;52.63
77526;BME280;66627;29.424;-98.496;2023-05-07T10:47:24;98788.29;;;25.55;53.75
77526;BME280;66627;29.424;-98.496;2023-05-07T10:52:17;98812.55;;;25.14;54.74
77526;BME280;66627;29.424;-98.496;2023-05-07T10:54:46;98810.64;;;24.82;55.41
77526;BME280;66627;29.424;-98.496;2023-05-07T10:59:33;98804.97;;;24.38;56.24
77526;BME280;66627;29.424;-98.496;2023-05-07T11:01:58;98802.03;;;24.80;55.53
77526;BME280;66627;29.424;-98.496;2023-05-07T11:04:23;98798.48;;;25.32;54.92
77526;BME280;66627;29.424;-98.496;2023-05-07T11:09:14;98796.18;;;25.50;54.23
77526;BME280;66627;29.424;-98.496;2023-05-07T11:11:46;98800.00;;;25.43;54.33
77526;BME280;66627;29.424;-98.496;2023-05-07T11:14:04;98801.39;;;25.05;55.06
77526;BME280;66627;29.424;-98.496;2023-05-07T11:16:30;98800.79;;;25.02;54.96
77526;BME280;66627;29.424;-98.496;2023-05-07T11:18:56;98811.73;;;24.65;55.69
77526;BME280;66627;29.424;-98.496;2023-05-07T11:21:32;98824.58;;;25.39;55.05
77526;BME280;66627;29.424;-98.496;2023-05-07T11:24:00;98832.74;;;26.31;53.74
77526;BME280;66627;29.424;-98.496;2023-05-07T11:26:12;98846.63;;;25.79;54.25
77526;BME280;66627;29.424;-98.496;2023-05-07T11:28:39;98839.97;;;26.41;53.00
77526;BME280;66627;29.424;-98.496;2023-05-07T11:31:03;98822.01;;;26.55;52.76
77526;BME280;66627;29.424;-98.496;2023-05-07T11:33:27;98811.67;;;25.38;54.49
77526;BME280;66627;29.424;-98.496;2023-05-07T11:35:54;98812.32;;;26.08;53.86
77526;BME280;66627;29.424;-98.496;2023-05-07T11:38:23;98815.73;;;25.69;54.08
77526;BME280;66627;29.424;-98.496;2023-05-07T11:40:50;98819.70;;;25.59;54.25
77526;BME280;66627;29.424;-98.496;2023-05-07T11:43:13;98820.92;;;25.16;55.11
77526;BME280;66627;29.424;-98.496;2023-05-07T11:45:34;98809.92;;;25.01;55.85
77526;BME280;66627;29.424;-98.496;2023-05-07T11:47:59;98790.79;;;25.32;55.16
77526;BME280;66627;29.424;-98.496;2023-05-07T11:50:24;98786.14;;;24.71;56.10
77526;BME280;66627;29.424;-98.496;2023-05-07T11:52:51;98790.10;;;25.34;55.61
77526;BME280;66627;29.424;-98.496;2023-05-07T11:55:19;98790.62;;;25.98;54.78
77526;BME280;66627;29.424;-98.496;2023-05-07T11:57:43;98783.87;;;25.42;54.92
77526;BME280;66627;29.424;-98.496;2023-05-07T12:00:08;98787.97;;;25.79;54.81
77526;BME280;66627;29.424;-98.496;2023-05-07T12:02:32;98810.78;;;25.02;55.62
77526;BME280;66627;29.424;-98.496;2023-05-07T12:04:57;98819.56;;;25.81;54.44
77526;BME280;66627;29.424;-98.496;2023-05-07T12:07:24;98820.48;;;26.20;54.02
77526;BME280;66627;29.424;-98.496;2023-05-07T12:12:14;98815.67;;;26.74;52.81
77526;BME280;66627;29.424;-98.496;2023-05-07T12:14:40;98823.40;;;26.58;53.02
77526;BME280;66627;29.424;-98.496;2023-05-07T12:17:05;98821.05;;;26.54;53.03
77526;BME280;66627;29.424;-98.496;2023-05-07T12:19:30;98817.10;;;26.38;53.10
77526;BME280;66627;29.424;-98.496;2023-05-07T12:21:55;98811.79;;;26.73;52.09
77526;BME280;66627;29.424;-98.496;2023-05-07T12:24:20;98812.31;;;26.59;52.67
77526;BME280;66627;29.424;-98.496;2023-05-07T12:26:45;98819.30;;;26.79;52.37
77526;BME280;66627;29.424;-98.496;2023-05-07T12:29:10;98830.48;;;26.74;52.14
77526;BME280;66627;29.424;-98.496;2023-05-07T12:31:36;98847.66;;;27.37;51.98
77526;BME280;66627;29.424;-98.496;2023-05-07T12:34:06;98854.89;;;27.00;51.78
77526;BME280;66627;29.424;-98.496;2023-05-07T12:36:35;98847.04;;;27.09;51.53
77526;BME280;66627;29.424;-98.496;2023-05-07T12:38:55;98836.94;;;27.00;52.03
77526;BME280;66627;29.424;-98.496;2023-05-07T12:41:18;98828.97;;;26.11;53.75